ADDS METAR Data INFO
IDs: Format: Raw Decoded Include TAF

Data at: 1504 UTC 29 May 2017

Region: TOP
KATL 291452Z 29007KT 10SM FEW028 FEW150 SCT250 26/19 A3004 RMK AO2 SLP164 T02560189 51012 $

KBOS 291454Z 08012KT 1/2SM R04R/P6000FT BR OVC005 10/09 A3003 RMK AO2 SFC VIS 6 SLP169 T01000089 55000

KBWI 291454Z VRB03KT 6SM BR OVC006 18/17 A2989 RMK AO2 SLP121 T01780172 51013

KCLE 291451Z 23007KT 10SM FEW090 23/14 A2987 RMK AO2 SLP110 T02330139 50006 $

KCLT 291452Z 00000KT 10SM FEW045 FEW250 26/16 A2998 RMK AO2 SLP145 T02610161 53008

KCVG 291452Z 23007KT 10SM SCT250 22/17 A2994 RMK AO2 SLP131 T02220172 53002

KDCA 291452Z 13004KT 9SM SCT011 BKN250 21/19 A2989 RMK AO2 SLP121 T02110189 51003

KDEN 291453Z 25003KT 10SM FEW080 SCT110 14/06 A3028 RMK AO2 SLP203 T01440061 51006 $

KDFW 291453Z 04003KT 10SM FEW110 BKN250 26/18 A3007 RMK AO2 SLP172 T02560178 51034

KDTW 291453Z 20011KT 10SM FEW100 22/13 A2982 RMK AO2 SLP094 T02220133 51000 $

KEWR 291451Z 08005KT 7SM -RA BKN013 BKN020 OVC040 14/12 A2993 RMK AO2 SLP136 P0005 60005 T01440122 53013

KFLL 291453Z 07008KT 10SM FEW025 SCT250 30/23 A3008 RMK AO2 SLP185 T03000228 53004

KIAD 291455Z VRB03KT 10SM SCT020 BKN040 BKN110 23/18 A2988 RMK AO2 T02280178

KIAH 291453Z 02004KT 10SM FEW006 BKN032 BKN100 BKN180 OVC250 22/20 A3004 RMK AO2 SLP173 60000 T02220200 53018 $

KJFK 291451Z 08009KT 10SM -RA FEW011 BKN017 OVC042 14/13 A2994 RMK AO2 RAB28 SLP138 P0000 60002 T01440128 53014

KLAS 291456Z 00000KT 10SM FEW200 27/M09 A2992 RMK AO2 SLP106 T02671089 50011

KLAX 291453Z 23004KT 6SM BR SCT009 OVC011 16/14 A2993 RMK AO2 SLP135 T01560139 53004

KLGA 291501Z 07008KT 10SM SCT020 OVC044 15/12 A2993 RMK AO2 RAE01 CIG 024 R22 SW P0000 T01500117

KMCO 291453Z VRB04KT 10SM FEW030 FEW250 29/22 A3008 RMK AO2 SLP183 T02890217 51007

KMDW 291453Z 25015G21KT 10SM FEW100 23/09 A2982 RMK AO2 SLP089 T02280089 53004 $

KMEM 291454Z 04006KT 10SM FEW030 FEW150 BKN250 27/18 A3002 RMK AO2 SLP161 T02670183 53019 $

KMIA 291453Z VRB03KT 10SM FEW027 31/22 A3009 RMK AO2 SLP189 T03110222 53008 $

KMSP 291453Z 30012G19KT 10SM FEW026 SCT035 OVC048 14/08 A2980 RMK AO2 SLP092 PRESENT WX VCSH T01440078 51007

KORD 291451Z 28013G19KT 10SM FEW090 SCT120 22/07 A2981 RMK AO2 SLP089 T02220072 53005

KPDX 291453Z VRB03KT 10SM OVC009 13/11 A3007 RMK AO2 SLP183 T01280106 55000 $

KPHL 291454Z 07006KT 7SM OVC007 15/13 A2992 RMK AO2 RAE21 SLP132 P0000 60000 T01500133 51020 $

KPHX 291451Z 13010KT 10SM FEW250 28/M03 A2982 RMK AO2 SLP078 T02781033 52012

KPIT 291451Z 27008KT 230V290 10SM SCT018 SCT250 21/14 A2990 RMK AO2 SLP124 T02110144 51009 $

KSAN 291458Z 00000KT 10SM SCT009 OVC011 17/14 A2995 RMK AO2 T01670139

KSEA 291453Z 21006KT 1/2SM R16L/P6000FT BR OVC003 12/11 A3008 RMK AO2 SFC VIS 5 SLP191 T01170106 58002

KSFO 291456Z 28013KT 3SM FEW004 OVC006 12/09 A3002 RMK AO2 SFC VIS 8 SLP164 T01170094 53003

KSLC 291454Z 07003KT 10SM CLR 18/04 A3016 RMK AO2 SLP169 T01830039 51006

KSTL 291451Z 23005KT 10SM BKN250 25/13 A2993 RMK AO2 SLP125 T02500133 50004

KTPA 291453Z 27007KT 10SM SCT028 BKN037 29/23 A3010 RMK AO2 SLP191 T02940228 51014


Page loaded:  15:04 UTC  |   08:04 AM Pacific  |   09:04 AM Mountain  |   10:04 AM Central  |   11:04 AM Eastern

 

ADVISORIES

FORECASTS

FORECASTS

OBSERVATIONS

USER TOOLS

ABOUT US